Friday, July 20, 2018, 4:43 AM EDT
Back to Local

KDKK, Chautauqua County/dunkirk

Location: Dunkirk, NY, United States Lat: 42.5
Local Time: 4:43 AM EDT ( 8:43 GMT) Lon: -79.283
Time Zone: US/Eastern Elev: 692 ft

Show me the last for .
Show Decoded

2018-07-20 03:53 METAR KDKK 200753Z AUTO 18008KT 10SM CLR 22/14 A3002 RMK AO2 SLP162 T02170139 $
                 =
2018-07-20 02:53 METAR KDKK 200653Z AUTO 18008KT 10SM CLR 22/14 A3002 RMK AO2 SLP162 T02170139 $
                 =
2018-07-20 01:53 METAR KDKK 200553Z AUTO 00000KT 10SM CLR 16/13 A3002 RMK AO2 SLP164 T01560128
                 10239 20139 58009 $ =
2018-07-20 00:53 METAR KDKK 200453Z AUTO 00000KT 10SM CLR 14/12 A3004 RMK AO2 SLP171 T01440122
                 402610133 $ =
2018-07-19 23:53 METAR KDKK 200353Z AUTO 06003KT 10SM CLR 16/12 A3005 RMK AO2 SLP172 T01560122 $
                 =
2018-07-19 22:53 METAR KDKK 200253Z AUTO 00000KT 10SM CLR 17/12 A3005 RMK AO2 SLP173 T01720122
                 50000 $ =
2018-07-19 21:53 METAR KDKK 200153Z AUTO 00000KT 10SM CLR 18/13 A3005 RMK AO2 SLP174 T01780128 $
                 =
2018-07-19 20:53 METAR KDKK 200053Z AUTO 10003KT 10SM CLR 21/12 A3005 RMK AO2 SLP173 T02060122 $
                 =
2018-07-19 19:53 METAR KDKK 192353Z AUTO 05004KT 10SM CLR 24/11 A3005 RMK AO2 SLP172 T02390106
                 10261 20239 58007 $ =
2018-07-19 18:53 METAR KDKK 192253Z AUTO 36005KT 10SM CLR 25/09 A3006 RMK AO2 SLP176 T02500094 $
                 =
2018-07-19 17:53 METAR KDKK 192153Z AUTO 33006KT 10SM CLR 25/07 A3006 RMK AO2 SLP177 T02500072 $
                 =
2018-07-19 16:53 METAR KDKK 192053Z AUTO 30007KT 10SM CLR 26/08 A3007 RMK AO2 SLP180 T02560078
                 58011 $ =
2018-07-19 15:53 METAR KDKK 191953Z AUTO 35007KT 10SM CLR 25/09 A3008 RMK AO2 SLP184 T02500089 $
                 =
2018-07-19 14:53 METAR KDKK 191853Z AUTO 36007KT 310V010 10SM CLR 24/09 A3009 RMK AO2 SLP188
                 T02440089 $ =
2018-07-19 13:53 METAR KDKK 191753Z AUTO 35009KT 10SM CLR 24/11 A3010 RMK AO2 SLP191 T02440106
                 10244 20183 58006 $ =
2018-07-19 12:53 METAR KDKK 191653Z AUTO 31009KT 10SM CLR 24/12 A3012 RMK AO2 SLP196 T02390117 $
                 =
2018-07-19 11:53 METAR KDKK 191553Z AUTO 30009KT 10SM CLR 23/13 A3012 RMK AO2 SLP198 T02330133 $
                 =
2018-07-19 10:53 METAR KDKK 191453Z AUTO 31007KT 10SM CLR 22/15 A3012 RMK AO2 SLP198 T02220150
                 53003 $ =
2018-07-19 09:53 METAR KDKK 191353Z AUTO 00000KT 10SM CLR 22/12 A3012 RMK AO2 SLP197 T02220122 $
                 =
2018-07-19 08:53 METAR KDKK 191253Z AUTO 20006KT 10SM CLR 21/14 A3011 RMK AO2 SLP195 T02060139 $
                 =
2018-07-19 07:53 METAR KDKK 191153Z AUTO 21005KT 10SM CLR 18/14 A3011 RMK AO2 SLP194 T01830144
                 10183 20133 51008 $ =
2018-07-19 06:53 METAR KDKK 191053Z AUTO 18006KT 10SM CLR 16/13 A3010 RMK AO2 SLP192 T01610133 $
                 =
2018-07-19 05:53 METAR KDKK 190953Z AUTO 00000KT 10SM CLR 14/12 A3010 RMK AO2 SLP191 T01440122 $
                 =
2018-07-19 04:53 METAR KDKK 190853Z AUTO 21003KT 10SM CLR 14/12 A3009 RMK AO2 SLP186 T01390122
                 53003 $ =

Support USWX by starting your Amazon purchase here.